createdAt,value
2017-11-05T00:00:32.911Z,96463.63
2017-11-05T00:03:00.516Z,96466.95
2017-11-05T00:05:28.074Z,96455.16
2017-11-05T00:07:56.028Z,96446.30
2017-11-05T00:10:23.600Z,96448.41
2017-11-05T00:12:51.149Z,96448.47
2017-11-05T00:15:18.716Z,96447.61
2017-11-05T00:17:46.251Z,96448.47
2017-11-05T00:20:14.323Z,96445.97
2017-11-05T00:22:41.876Z,96445.52
2017-11-05T00:25:09.460Z,96442.91
2017-11-05T00:27:37.012Z,96442.37
2017-11-05T00:30:04.552Z,96431.80
2017-11-05T00:32:32.230Z,96435.93
2017-11-05T00:34:59.919Z,96430.37
2017-11-05T00:37:27.853Z,96430.30
2017-11-05T00:39:55.418Z,96431.48
2017-11-05T00:42:22.972Z,96423.02
2017-11-05T00:44:50.541Z,96430.57
2017-11-05T00:47:18.102Z,96424.30
2017-11-05T00:49:45.687Z,96418.48
2017-11-05T00:52:13.240Z,96413.86
2017-11-05T00:54:40.824Z,96407.81
2017-11-05T00:57:08.365Z,96392.55
2017-11-05T00:59:35.917Z,96381.63
2017-11-05T01:02:03.483Z,96376.15
2017-11-05T01:04:31.045Z,96379.41
2017-11-05T01:06:58.724Z,96374.34
2017-11-05T01:09:26.275Z,96372.55
2017-11-05T01:11:54.183Z,96378.86
2017-11-05T01:14:21.745Z,96382.70
2017-11-05T01:16:49.302Z,96386.56
2017-11-05T01:19:16.860Z,96379.48
2017-11-05T01:21:44.418Z,96380.40
2017-11-05T01:24:12.059Z,96367.84
2017-11-05T01:26:39.602Z,96369.53
2017-11-05T01:29:07.518Z,96367.44
2017-11-05T01:31:35.087Z,96360.31
2017-11-05T01:34:02.653Z,96352.69
2017-11-05T01:36:30.262Z,96345.42
2017-11-05T01:38:57.809Z,96332.19
2017-11-05T01:41:25.390Z,96325.75
2017-11-05T01:43:52.928Z,96311.36
2017-11-05T01:46:20.843Z,96307.91
2017-11-05T01:48:48.402Z,96306.58
2017-11-05T01:51:15.959Z,96304.44
2017-11-05T01:53:43.521Z,96310.00
2017-11-05T01:56:11.065Z,96302.98
2017-11-05T01:58:38.952Z,96297.58
2017-11-05T02:01:06.507Z,96300.47
2017-11-05T02:03:34.067Z,96297.61
2017-11-05T02:06:01.670Z,96303.11
2017-11-05T02:08:29.215Z,96307.77
2017-11-05T02:10:57.061Z,96310.33
2017-11-05T02:13:24.614Z,96309.00
2017-11-05T02:15:52.479Z,96307.28
2017-11-05T02:18:20.024Z,96309.00
2017-11-05T02:20:47.581Z,96296.34
2017-11-05T02:23:15.145Z,96297.05
2017-11-05T02:25:42.671Z,96296.89
2017-11-05T02:28:10.271Z,96285.47
2017-11-05T02:30:37.798Z,96280.82
2017-11-05T02:33:05.580Z,96277.43
2017-11-05T02:35:33.156Z,96268.14
2017-11-05T02:38:00.703Z,96259.67
2017-11-05T02:40:28.269Z,96254.59
2017-11-05T02:42:55.835Z,96251.20
2017-11-05T02:45:23.701Z,96240.69
2017-11-05T02:47:51.252Z,96229.30
2017-11-05T02:50:19.010Z,96221.31
2017-11-05T02:52:46.561Z,96220.83
2017-11-05T02:55:14.092Z,96214.06
2017-11-05T02:57:41.665Z,96213.25
2017-11-05T03:00:09.222Z,96208.22
2017-11-05T03:02:37.143Z,96205.30
2017-11-05T03:05:04.684Z,96202.36
2017-11-05T03:07:32.247Z,96189.81
2017-11-05T03:09:59.859Z,96182.28
2017-11-05T03:12:27.399Z,96179.77
2017-11-05T03:14:55.243Z,96185.24
2017-11-05T03:17:22.800Z,96182.38
2017-11-05T03:19:50.332Z,96186.62
2017-11-05T03:22:17.894Z,96187.08
2017-11-05T03:24:45.445Z,96188.46
2017-11-05T03:27:13.336Z,96177.09
2017-11-05T03:29:40.876Z,96172.78
2017-11-05T03:32:08.424Z,96168.05
2017-11-05T03:34:35.991Z,96166.70
2017-11-05T03:37:03.535Z,96171.78
2017-11-05T03:39:31.449Z,96167.63
2017-11-05T03:41:58.998Z,96174.34
2017-11-05T03:44:26.599Z,96168.48
2017-11-05T03:46:54.281Z,96160.41
2017-11-05T03:49:21.839Z,96152.76
2017-11-05T03:51:49.402Z,96143.86
2017-11-05T03:54:16.944Z,96140.84
2017-11-05T03:56:45.019Z,96132.03
2017-11-05T03:59:12.556Z,96140.34
2017-11-05T04:01:40.113Z,96139.09
2017-11-05T04:04:07.667Z,96133.59
2017-11-05T04:06:35.196Z,96125.98
2017-11-05T04:09:03.099Z,96123.41
2017-11-05T04:11:30.701Z,96125.04
2017-11-05T04:13:58.239Z,96125.09
2017-11-05T04:16:25.821Z,96124.62
2017-11-05T04:18:53.353Z,96122.51
2017-11-05T04:21:21.062Z,96111.98
2017-11-05T04:23:49.303Z,96121.63
2017-11-05T04:26:16.839Z,96127.11
2017-11-05T04:28:44.391Z,96114.55
2017-11-05T04:31:11.922Z,96105.73
2017-11-05T04:33:39.761Z,96106.16
2017-11-05T04:36:07.301Z,96105.75
2017-11-05T04:38:34.823Z,96097.87
2017-11-05T04:41:02.556Z,96090.36
2017-11-05T04:43:30.096Z,96084.13
2017-11-05T04:45:57.656Z,96077.90
2017-11-05T04:48:25.209Z,96064.08
2017-11-05T04:50:53.163Z,96057.84
2017-11-05T04:53:20.700Z,96057.47
2017-11-05T04:55:48.251Z,96057.02
2017-11-05T04:58:16.060Z,96047.39
2017-11-05T05:00:43.754Z,96039.03
2017-11-05T05:03:11.322Z,96039.06
2017-11-05T05:05:38.874Z,96039.88
2017-11-05T05:08:07.204Z,96056.26
2017-11-05T05:10:34.782Z,96054.20
2017-11-05T05:13:02.380Z,96060.09
2017-11-05T05:15:29.950Z,96064.29
2017-11-05T05:17:57.505Z,96067.20
2017-11-05T05:20:25.399Z,96071.41
2017-11-05T05:22:52.936Z,96065.55
2017-11-05T05:25:20.477Z,96057.58
2017-11-05T05:27:48.041Z,96068.48
2017-11-05T05:30:15.603Z,96075.66
2017-11-05T05:32:43.566Z,96081.22
2017-11-05T05:35:11.096Z,96073.74
2017-11-05T05:37:38.645Z,96064.97
2017-11-05T05:40:06.208Z,96062.38
2017-11-05T05:42:33.766Z,96065.73
2017-11-05T05:45:01.367Z,96064.09
2017-11-05T05:47:28.888Z,96068.36
2017-11-05T05:49:56.455Z,96062.11
2017-11-05T05:52:23.992Z,96070.53
2017-11-05T05:54:51.633Z,96071.80
2017-11-05T05:57:19.201Z,96069.73
2017-11-05T05:59:46.746Z,96068.94
2017-11-05T06:02:14.467Z,96069.38
2017-11-05T06:04:42.007Z,96065.62
2017-11-05T06:07:09.863Z,96056.89
2017-11-05T06:09:37.442Z,96054.01
2017-11-05T06:12:04.992Z,96047.78
2017-11-05T06:14:32.865Z,96056.61
2017-11-05T06:17:00.396Z,96057.04
2017-11-05T06:19:27.967Z,96060.02
2017-11-05T06:21:55.530Z,96056.67
2017-11-05T06:24:23.093Z,96060.91
2017-11-05T06:26:50.793Z,96060.13
2017-11-05T06:29:18.346Z,96068.52
2017-11-05T06:31:46.280Z,96074.06
2017-11-05T06:34:13.852Z,96074.97
2017-11-05T06:36:41.396Z,96082.11
2017-11-05T06:39:08.993Z,96069.55
2017-11-05T06:41:36.526Z,96071.26
2017-11-05T06:44:04.816Z,96071.23
2017-11-05T06:46:32.427Z,96061.18
2017-11-05T06:48:59.968Z,96061.61
2017-11-05T06:51:27.568Z,96059.48
2017-11-05T06:53:55.110Z,96062.91
2017-11-05T06:56:22.811Z,96065.84
2017-11-05T06:58:50.364Z,96060.79
2017-11-05T07:01:17.960Z,96056.97
2017-11-05T07:03:45.622Z,96059.87
2017-11-05T07:06:13.176Z,96071.25
2017-11-05T07:08:40.728Z,96078.91
2017-11-05T07:11:08.273Z,96088.59
2017-11-05T07:13:35.838Z,96078.23
2017-11-05T07:16:03.397Z,96059.87
2017-11-05T07:18:30.934Z,96056.62
2017-11-05T07:20:58.499Z,96076.03
2017-11-05T07:23:26.095Z,96079.91
2017-11-05T07:25:53.683Z,96069.09
2017-11-05T07:28:21.214Z,96072.14
2017-11-05T07:30:48.763Z,96077.70
2017-11-05T07:33:16.518Z,96083.64
2017-11-05T07:35:44.084Z,96075.31
2017-11-05T07:38:11.664Z,96066.56
2017-11-05T07:40:39.235Z,96083.75
2017-11-05T07:43:06.798Z,96061.09
2017-11-05T07:45:34.502Z,96063.19
2017-11-05T07:48:02.465Z,96054.78
2017-11-05T07:50:30.315Z,96056.06
2017-11-05T07:52:57.864Z,96059.47
2017-11-05T07:55:25.489Z,96066.27
2017-11-05T07:57:53.137Z,96077.23
2017-11-05T08:00:20.721Z,96079.02
2017-11-05T08:02:48.318Z,96070.73
2017-11-05T08:05:15.897Z,96072.06
2017-11-05T08:07:43.470Z,96070.43
2017-11-05T08:10:11.057Z,96061.67
2017-11-05T08:12:38.618Z,96059.64
2017-11-05T08:15:06.194Z,96053.44
2017-11-05T08:17:33.738Z,96041.73
2017-11-05T08:20:01.322Z,96040.52
2017-11-05T08:22:29.393Z,96042.70
2017-11-05T08:24:56.958Z,96058.34
2017-11-05T08:27:24.524Z,96056.27
2017-11-05T08:29:52.156Z,96061.40
2017-11-05T08:32:19.817Z,96059.79
2017-11-05T08:34:47.368Z,96059.81
2017-11-05T08:37:15.035Z,96051.06
2017-11-05T08:39:43.747Z,96054.00
2017-11-05T08:42:11.343Z,96050.67
2017-11-05T08:44:39.100Z,96046.50
2017-11-05T08:47:06.660Z,96044.84
2017-11-05T08:49:34.242Z,96038.98
2017-11-05T08:52:01.795Z,96031.44
2017-11-05T08:54:29.419Z,96023.05
2017-11-05T08:56:56.994Z,96023.51
2017-11-05T08:59:24.587Z,96026.89
2017-11-05T09:01:52.220Z,96035.75
2017-11-05T09:04:19.917Z,96037.91
2017-11-05T09:06:47.498Z,96032.06
2017-11-05T09:09:15.040Z,96024.48
2017-11-05T09:11:42.671Z,96021.98
2017-11-05T09:14:10.235Z,96023.27
2017-11-05T09:16:37.983Z,96022.44
2017-11-05T09:19:05.565Z,96024.14
2017-11-05T09:21:33.115Z,96013.22
2017-11-05T09:24:00.867Z,96014.06
2017-11-05T09:26:28.419Z,96015.75
2017-11-05T09:28:56.020Z,96017.44
2017-11-05T09:31:23.572Z,96006.92
2017-11-05T09:33:51.131Z,96011.98
2017-11-05T09:36:18.696Z,96020.44
2017-11-05T09:38:46.266Z,96026.77
2017-11-05T09:41:14.929Z,96019.59
2017-11-05T09:43:42.536Z,96022.55
2017-11-05T09:46:10.130Z,96016.64
2017-11-05T09:48:37.704Z,96011.59
2017-11-05T09:51:05.455Z,96007.80
2017-11-05T09:53:33.033Z,96020.03
2017-11-05T09:56:00.580Z,96020.45
2017-11-05T09:58:28.196Z,96022.11
2017-11-05T10:00:55.780Z,96030.11
2017-11-05T10:03:23.331Z,96025.06
2017-11-05T10:05:50.908Z,96024.20
2017-11-05T10:08:18.463Z,96026.31
2017-11-05T10:10:46.047Z,96023.75
2017-11-05T10:13:13.684Z,96011.48
2017-11-05T10:15:41.300Z,96014.03
2017-11-05T10:18:08.865Z,96011.91
2017-11-05T10:20:36.457Z,96016.97
2017-11-05T10:23:04.039Z,96011.91
2017-11-05T10:25:32.227Z,96019.06
2017-11-05T10:27:59.816Z,96008.11
2017-11-05T10:30:27.391Z,96019.05
2017-11-05T10:32:54.981Z,96011.87
2017-11-05T10:35:22.563Z,96016.09
2017-11-05T10:37:50.127Z,96030.43
2017-11-05T10:40:18.019Z,96024.08
2017-11-05T10:42:45.671Z,96019.87
2017-11-05T10:45:13.254Z,96022.80
2017-11-05T10:47:40.867Z,96024.91
2017-11-05T10:50:08.436Z,96025.30
2017-11-05T10:52:36.040Z,96022.33
2017-11-05T10:55:03.622Z,96022.77
2017-11-05T10:57:31.204Z,96035.84
2017-11-05T10:59:58.772Z,96033.27
2017-11-05T11:02:26.353Z,96044.25
2017-11-05T11:04:53.932Z,96037.47
2017-11-05T11:07:21.500Z,96029.45
2017-11-05T11:09:49.109Z,96026.92
2017-11-05T11:12:16.690Z,96023.55
2017-11-05T11:14:44.237Z,96013.40
2017-11-05T11:17:11.852Z,95998.14
2017-11-05T11:19:39.441Z,95993.45
2017-11-05T11:22:07.040Z,95991.34
2017-11-05T11:24:34.731Z,95994.30
2017-11-05T11:27:02.383Z,96003.98
2017-11-05T11:29:30.211Z,96005.27
2017-11-05T11:31:57.900Z,95997.23
2017-11-05T11:34:25.508Z,95997.23
2017-11-05T11:36:53.087Z,95989.25
2017-11-05T11:39:20.748Z,95989.25
2017-11-05T11:41:48.363Z,95990.91
2017-11-05T11:44:15.932Z,95989.22
2017-11-05T11:46:43.521Z,95989.65
2017-11-05T11:49:11.261Z,96002.30
2017-11-05T11:51:38.853Z,96005.29
2017-11-05T11:54:06.585Z,96010.36
2017-11-05T11:56:34.244Z,96015.86
2017-11-05T11:59:01.798Z,96020.95
2017-11-05T12:01:29.357Z,96023.09
2017-11-05T12:03:56.949Z,96019.67
2017-11-05T12:06:24.548Z,96015.04
2017-11-05T12:08:52.136Z,96010.80
2017-11-05T12:11:19.832Z,96006.98
2017-11-05T12:13:47.530Z,95999.39
2017-11-05T12:16:15.123Z,96008.70
2017-11-05T12:18:42.710Z,96010.80
2017-11-05T12:21:10.321Z,96011.62
2017-11-05T12:23:37.946Z,96010.82
2017-11-05T12:26:05.525Z,96002.79
2017-11-05T12:28:33.097Z,96012.95
2017-11-05T12:31:00.892Z,96019.74
2017-11-05T12:33:28.458Z,96023.98
2017-11-05T12:35:56.010Z,96026.12
2017-11-05T12:38:23.626Z,96023.59
2017-11-05T12:40:51.197Z,96020.63
2017-11-05T12:43:18.796Z,96013.91
2017-11-05T12:45:46.525Z,96015.16
2017-11-05T12:48:14.119Z,96012.63
2017-11-05T12:50:41.719Z,96007.13
2017-11-05T12:53:09.286Z,96003.31
2017-11-05T12:55:37.000Z,95997.38
2017-11-05T12:58:04.534Z,96005.84
2017-11-05T13:00:32.139Z,96001.60
2017-11-05T13:02:59.719Z,96010.47
2017-11-05T13:05:27.281Z,96021.87
2017-11-05T13:07:54.866Z,96025.27
2017-11-05T13:10:22.429Z,96024.43
2017-11-05T13:12:50.162Z,96023.16
2017-11-05T13:15:17.735Z,96026.56
2017-11-05T13:17:45.310Z,96031.66
2017-11-05T13:20:12.941Z,96018.97
2017-11-05T13:22:40.531Z,96024.91
2017-11-05T13:25:08.442Z,96029.55
2017-11-05T13:27:36.023Z,96026.59
2017-11-05T13:30:03.686Z,96031.23
2017-11-05T13:32:31.273Z,96030.41
2017-11-05T13:34:58.851Z,96043.52
2017-11-05T13:37:26.457Z,96045.64
2017-11-05T13:39:54.178Z,96053.25
2017-11-05T13:42:22.154Z,96053.23
2017-11-05T13:44:49.711Z,96056.64
2017-11-05T13:47:17.273Z,96061.72
2017-11-05T13:49:44.882Z,96060.85
2017-11-05T13:52:12.562Z,96068.91
2017-11-05T13:54:40.619Z,96084.53
2017-11-05T13:57:08.186Z,96095.11
2017-11-05T13:59:35.763Z,96100.16
2017-11-05T14:02:03.438Z,96101.83
2017-11-05T14:04:31.033Z,96107.75
2017-11-05T14:06:58.790Z,96113.67
2017-11-05T14:09:26.374Z,96114.50
2017-11-05T14:11:54.127Z,96123.80
2017-11-05T14:14:21.708Z,96133.94
2017-11-05T14:16:49.262Z,96125.50
2017-11-05T14:19:17.212Z,96132.67
2017-11-05T14:21:44.787Z,96143.23
2017-11-05T14:24:12.359Z,96157.17
2017-11-05T14:26:39.967Z,96156.33
2017-11-05T14:29:07.595Z,96163.08
2017-11-05T14:31:35.856Z,96171.08
2017-11-05T14:34:03.779Z,96176.16
2017-11-05T14:36:31.634Z,96182.92
2017-11-05T14:38:59.250Z,96188.41
2017-11-05T14:41:26.834Z,96200.21
2017-11-05T14:43:54.454Z,96210.34
2017-11-05T14:46:22.034Z,96214.11
2017-11-05T14:48:49.668Z,96225.92
2017-11-05T14:51:17.237Z,96213.27
2017-11-05T14:53:44.834Z,96231.79
2017-11-05T14:56:12.442Z,96242.34
2017-11-05T14:58:39.998Z,96242.75
2017-11-05T15:01:07.625Z,96248.22
2017-11-05T15:03:35.240Z,96254.56
2017-11-05T15:06:02.939Z,96260.02
2017-11-05T15:08:30.523Z,96268.04
2017-11-05T15:10:58.127Z,96266.35
2017-11-05T15:13:25.797Z,96283.21
2017-11-05T15:15:53.399Z,96283.62
2017-11-05T15:18:21.016Z,96288.67
2017-11-05T15:20:48.751Z,96291.59
2017-11-05T15:23:16.352Z,96296.17
2017-11-05T15:25:43.954Z,96302.08
2017-11-05T15:28:11.575Z,96313.41
2017-11-05T15:30:39.230Z,96318.47
2017-11-05T15:33:06.807Z,96323.50
2017-11-05T15:35:34.438Z,96323.50
2017-11-05T15:38:02.059Z,96330.17
2017-11-05T15:40:29.680Z,96338.16
2017-11-05T15:42:57.390Z,96333.06
2017-11-05T15:45:25.064Z,96351.58
2017-11-05T15:47:52.791Z,96356.63
2017-11-05T15:50:20.430Z,96371.78
2017-11-05T15:52:48.372Z,96370.08
2017-11-05T15:55:16.063Z,96380.16
2017-11-05T15:57:43.704Z,96377.99
2017-11-05T16:00:11.306Z,96383.45
2017-11-05T16:02:38.978Z,96393.92
2017-11-05T16:05:06.686Z,96397.27
2017-11-05T16:07:34.418Z,96402.28
2017-11-05T16:10:02.093Z,96409.01
2017-11-05T16:12:30.299Z,96407.70
2017-11-05T16:14:58.180Z,96410.64
2017-11-05T16:17:25.882Z,96418.60
2017-11-05T16:19:53.508Z,96423.66
2017-11-05T16:22:21.668Z,96425.74
2017-11-05T16:24:49.360Z,96438.73
2017-11-05T16:27:17.004Z,96439.17
2017-11-05T16:29:44.640Z,96447.98
2017-11-05T16:32:12.374Z,96455.05
2017-11-05T16:34:40.267Z,96452.06
2017-11-05T16:37:08.413Z,96461.36
2017-11-05T16:39:36.533Z,96466.35
2017-11-05T16:42:04.380Z,96471.39
2017-11-05T16:44:32.111Z,96473.89
2017-11-05T16:46:59.860Z,96486.08
2017-11-05T16:49:27.585Z,96490.68
2017-11-05T16:51:55.761Z,96487.29
2017-11-05T16:54:23.440Z,96495.27
2017-11-05T16:56:51.303Z,96502.00
2017-11-05T16:59:19.065Z,96493.97
2017-11-05T17:01:46.790Z,96500.69
2017-11-05T17:04:14.503Z,96509.94
2017-11-05T17:06:42.406Z,96508.64
2017-11-05T17:09:10.206Z,96503.61
2017-11-05T17:11:37.866Z,96511.17
2017-11-05T17:14:05.646Z,96514.91
2017-11-05T17:16:33.513Z,96521.23
2017-11-05T17:19:01.187Z,96514.92
2017-11-05T17:21:28.927Z,96525.02
2017-11-05T17:23:56.664Z,96520.35
2017-11-05T17:26:24.365Z,96525.86
2017-11-05T17:28:52.132Z,96518.30
2017-11-05T17:31:20.007Z,96528.83
2017-11-05T17:33:47.870Z,96527.98
2017-11-05T17:36:15.782Z,96536.80
2017-11-05T17:38:43.597Z,96533.41
2017-11-05T17:41:11.466Z,96539.31
2017-11-05T17:43:39.190Z,96540.11
2017-11-05T17:46:06.822Z,96545.98
2017-11-05T17:48:34.623Z,96550.61
2017-11-05T17:51:02.432Z,96557.80
2017-11-05T17:53:30.124Z,96555.64
2017-11-05T17:55:57.913Z,96553.11
2017-11-05T17:58:26.809Z,96553.53
2017-11-05T18:00:55.654Z,96548.86
2017-11-05T18:03:23.396Z,96553.03
2017-11-05T18:05:51.078Z,96563.13
2017-11-05T18:08:18.918Z,96569.44
2017-11-05T18:10:46.767Z,96560.60
2017-11-05T18:13:14.502Z,96563.11
2017-11-05T18:15:42.425Z,96565.62
2017-11-05T18:18:10.156Z,96571.08
2017-11-05T18:20:38.167Z,96573.22
2017-11-05T18:23:06.021Z,96576.51
2017-11-05T18:25:33.821Z,96582.02
2017-11-05T18:28:01.646Z,96576.52
2017-11-05T18:30:29.427Z,96581.11
2017-11-05T18:32:57.140Z,96574.38
2017-11-05T18:35:24.952Z,96582.75
2017-11-05T18:37:52.734Z,96575.15
2017-11-05T18:40:20.422Z,96578.13
2017-11-05T18:42:48.816Z,96585.27
2017-11-05T18:45:16.441Z,96583.13
2017-11-05T18:47:44.093Z,96590.30
2017-11-05T18:50:12.060Z,96593.23
2017-11-05T18:52:39.816Z,96594.48
2017-11-05T18:55:07.522Z,96591.55
2017-11-05T18:57:35.222Z,96593.19
2017-11-05T19:00:03.137Z,96600.34
2017-11-05T19:02:30.866Z,96597.38
2017-11-05T19:04:58.816Z,96597.31
2017-11-05T19:07:26.555Z,96605.27
2017-11-05T19:09:54.294Z,96608.67
2017-11-05T19:12:22.145Z,96614.16
2017-11-05T19:14:51.180Z,96616.70
2017-11-05T19:17:19.606Z,96612.83
2017-11-05T19:19:47.354Z,96621.64
2017-11-05T19:22:15.029Z,96616.19
2017-11-05T19:24:42.788Z,96626.70
2017-11-05T19:27:10.494Z,96625.86
2017-11-05T19:29:38.632Z,96631.70
2017-11-05T19:32:06.415Z,96630.42
2017-11-05T19:34:34.172Z,96630.83
2017-11-05T19:37:02.043Z,96636.27
2017-11-05T19:39:29.843Z,96636.71
2017-11-05T19:41:57.595Z,96637.55
2017-11-05T19:44:25.937Z,96638.00
2017-11-05T19:46:53.662Z,96637.56
2017-11-05T19:49:21.473Z,96640.52
2017-11-05T19:51:50.372Z,96643.81
2017-11-05T19:54:18.212Z,96638.33
2017-11-05T19:56:45.924Z,96643.72
2017-11-05T19:59:13.693Z,96640.81
2017-11-05T20:01:41.497Z,96647.12
2017-11-05T20:04:11.053Z,96649.21
2017-11-05T20:06:38.900Z,96648.00
2017-11-05T20:09:06.872Z,96645.86
2017-11-05T20:11:35.465Z,96650.09
2017-11-05T20:14:03.430Z,96649.64
2017-11-05T20:16:31.401Z,96658.42
2017-11-05T20:18:59.270Z,96661.35
2017-11-05T20:21:27.339Z,96661.31
2017-11-05T20:23:55.372Z,96668.86
2017-11-05T20:26:23.184Z,96665.47
2017-11-05T20:28:52.252Z,96667.14
2017-11-05T20:31:20.241Z,96674.25
2017-11-05T20:33:48.411Z,96674.71
2017-11-05T20:36:17.412Z,96679.30
2017-11-05T20:38:46.291Z,96681.34
2017-11-05T20:41:14.147Z,96683.39
2017-11-05T20:43:42.880Z,96686.63
2017-11-05T20:46:10.637Z,96692.88
2017-11-05T20:48:38.402Z,96698.36
2017-11-05T20:51:06.519Z,96694.92
2017-11-05T20:53:34.537Z,96695.76
2017-11-05T20:56:02.384Z,96702.03
2017-11-05T20:58:30.322Z,96703.30
2017-11-05T21:00:58.224Z,96708.31
2017-11-05T21:03:26.108Z,96707.43
2017-11-05T21:05:53.932Z,96717.48
2017-11-05T21:08:21.798Z,96711.97
2017-11-05T21:10:49.516Z,96708.56
2017-11-05T21:13:17.278Z,96708.09
2017-11-05T21:15:45.452Z,96711.30
2017-11-05T21:18:13.388Z,96718.70
2017-11-05T21:20:41.090Z,96717.36
2017-11-05T21:23:08.849Z,96719.80
2017-11-05T21:25:36.583Z,96728.53
2017-11-05T21:28:04.246Z,96731.09
2017-11-05T21:30:32.886Z,96723.09
2017-11-05T21:33:00.662Z,96723.98
2017-11-05T21:35:28.321Z,96716.39
2017-11-05T21:37:55.928Z,96713.79
2017-11-05T21:40:23.543Z,96716.68
2017-11-05T21:42:51.158Z,96712.45
2017-11-05T21:45:18.773Z,96709.84
2017-11-05T21:47:46.375Z,96703.14
2017-11-05T21:50:13.977Z,96704.45
2017-11-05T21:52:41.535Z,96705.23
2017-11-05T21:55:09.103Z,96699.39
2017-11-05T21:57:36.701Z,96696.84
2017-11-05T22:00:04.241Z,96704.40
2017-11-05T22:02:31.953Z,96711.16
2017-11-05T22:04:59.549Z,96703.16
2017-11-05T22:07:27.102Z,96698.98
2017-11-05T22:09:54.689Z,96709.47
2017-11-05T22:12:22.257Z,96715.37
2017-11-05T22:14:49.844Z,96712.45
2017-11-05T22:17:17.542Z,96717.05
2017-11-05T22:19:45.456Z,96720.38
2017-11-05T22:22:13.009Z,96721.64
2017-11-05T22:24:40.577Z,96713.63
2017-11-05T22:27:08.181Z,96706.00
2017-11-05T22:29:35.733Z,96701.02
2017-11-05T22:32:04.019Z,96712.42
2017-11-05T22:34:31.694Z,96716.57
2017-11-05T22:36:59.231Z,96720.34
2017-11-05T22:39:26.798Z,96719.55
2017-11-05T22:41:54.360Z,96728.80
2017-11-05T22:44:21.921Z,96717.05
2017-11-05T22:46:49.566Z,96725.88
2017-11-05T22:49:17.123Z,96725.88
2017-11-05T22:51:44.745Z,96725.96
2017-11-05T22:54:12.290Z,96734.35
2017-11-05T22:56:39.897Z,96739.80
2017-11-05T22:59:07.447Z,96735.18
2017-11-05T23:01:34.997Z,96734.33
2017-11-05T23:04:02.568Z,96737.30
2017-11-05T23:06:30.127Z,96740.66
2017-11-05T23:08:57.698Z,96735.24
2017-11-05T23:11:25.258Z,96738.22
2017-11-05T23:13:52.834Z,96732.34
2017-11-05T23:16:20.383Z,96748.30
2017-11-05T23:18:47.940Z,96739.51
2017-11-05T23:21:15.523Z,96734.92
2017-11-05T23:23:43.084Z,96745.49
2017-11-05T23:26:10.661Z,96740.88
2017-11-05T23:28:38.216Z,96749.73
2017-11-05T23:31:05.815Z,96750.10
2017-11-05T23:33:33.364Z,96750.12
2017-11-05T23:36:01.304Z,96748.04
2017-11-05T23:38:28.886Z,96750.08
2017-11-05T23:40:56.466Z,96749.59
2017-11-05T23:43:24.054Z,96752.56
2017-11-05T23:45:51.628Z,96753.80
2017-11-05T23:48:19.209Z,96752.45
2017-11-05T23:50:46.852Z,96759.16
2017-11-05T23:53:14.407Z,96760.91
2017-11-05T23:55:41.967Z,96765.54
2017-11-05T23:58:09.521Z,96764.20
